EGGW/LTN METAR and TAF weather

Enter ICAO airport designator
Station Type Date Time Source
EGGW METAR 2019/08/25 13:50 UTC NOAA

EGGW 251350Z AUTO 20005KT 140V230 9999 NCD 31/09 Q1018


Station Type Date Time Source
EGGW Decoded METAR 2019/08/25 13:50 UTC NOAA

Station name not available
Aug 25, 2019 - 09:50 AM EDT / 2019.08.25 1350 UTC
Wind: from the SSW (200 degrees) at 6 MPH (5 KT) (direction variable):0
Visibility: greater than 7 mile(s):0
Temperature: 87 F (31 C)
Dew Point: 48 F (9 C)
Relative Humidity: 25%
Pressure (altimeter): 30.06 in. Hg (1018 hPa)
ob: EGGW 251350Z AUTO 20005KT 140V230 9999 NCD 31/09 Q1018
cycle: 14

Station Type Date Time Source
EGGW TAF 2019/08/25 12:09 UTC NOAA

TAF EGGW 251053Z 2512/2612 VRB05KT CAVOK
BECMG 2523/2602 8000 PROB30 2602/2608 4000 BR
BECMG 2608/2611 CAVOK

Example: see airport list